createdAt,value
2019-04-01T00:00:03.163Z,4.63
2019-04-01T00:02:30.600Z,4.07
2019-04-01T00:04:58.002Z,4.67
2019-04-01T00:07:25.441Z,4.73
2019-04-01T00:09:52.849Z,5.27
2019-04-01T00:12:20.248Z,4.13
2019-04-01T00:14:47.699Z,4.47
2019-04-01T00:17:15.121Z,3.90
2019-04-01T00:19:42.557Z,4.00
2019-04-01T00:22:09.991Z,4.97
2019-04-01T00:24:37.402Z,4.40
2019-04-01T00:27:04.838Z,4.37
2019-04-01T00:29:32.299Z,4.40
2019-04-01T00:31:59.710Z,4.43
2019-04-01T00:34:27.150Z,4.50
2019-04-01T00:36:54.558Z,3.77
2019-04-01T00:39:22.024Z,3.93
2019-04-01T00:41:49.425Z,4.60
2019-04-01T00:44:16.821Z,4.07
2019-04-01T00:46:44.257Z,3.97
2019-04-01T00:49:11.674Z,4.00
2019-04-01T00:51:39.101Z,3.77
2019-04-01T00:54:06.507Z,4.10
2019-04-01T00:56:33.953Z,4.77
2019-04-01T00:59:01.360Z,4.07
2019-04-01T01:01:28.793Z,3.90
2019-04-01T01:03:56.223Z,3.43
2019-04-01T01:06:23.647Z,3.93
2019-04-01T01:08:51.063Z,3.50
2019-04-01T01:11:18.479Z,3.77
2019-04-01T01:13:45.916Z,3.83
2019-04-01T01:16:13.337Z,4.03
2019-04-01T01:18:40.760Z,3.37
2019-04-01T01:21:08.199Z,3.87
2019-04-01T01:23:35.639Z,3.77
2019-04-01T01:26:03.057Z,3.60
2019-04-01T01:28:30.478Z,3.30
2019-04-01T01:30:57.946Z,3.97
2019-04-01T01:33:25.339Z,3.20
2019-04-01T01:35:52.791Z,3.37
2019-04-01T01:38:20.216Z,3.47
2019-04-01T01:40:47.672Z,3.50
2019-04-01T01:43:15.090Z,4.10
2019-04-01T01:45:42.604Z,3.80
2019-04-01T01:48:10.025Z,3.30
2019-04-01T01:50:37.436Z,3.77
2019-04-01T01:53:04.875Z,3.47
2019-04-01T01:55:32.282Z,3.90
2019-04-01T01:57:59.719Z,4.13
2019-04-01T02:00:27.147Z,3.20
2019-04-01T02:02:54.615Z,3.57
2019-04-01T02:05:22.013Z,3.73
2019-04-01T02:07:49.427Z,3.20
2019-04-01T02:10:16.845Z,3.00
2019-04-01T02:12:44.262Z,2.83
2019-04-01T02:15:11.661Z,2.97
2019-04-01T02:17:39.098Z,3.20
2019-04-01T02:20:06.526Z,3.23
2019-04-01T02:22:33.938Z,3.53
2019-04-01T02:25:01.328Z,2.90
2019-04-01T02:27:28.747Z,3.47
2019-04-01T02:29:56.172Z,2.97
2019-04-01T02:32:23.573Z,3.67
2019-04-01T02:34:51.017Z,3.60
2019-04-01T02:37:18.413Z,3.17
2019-04-01T02:39:45.848Z,3.20
2019-04-01T02:42:13.246Z,2.67
2019-04-01T02:44:40.715Z,3.73
2019-04-01T02:47:08.074Z,3.13
2019-04-01T02:49:35.460Z,3.03
2019-04-01T02:52:02.899Z,3.30
2019-04-01T02:54:30.331Z,3.13
2019-04-01T02:56:57.733Z,3.17
2019-04-01T02:59:25.150Z,2.90
2019-04-01T03:01:52.550Z,3.73
2019-04-01T03:04:19.979Z,2.73
2019-04-01T03:06:47.381Z,2.50
2019-04-01T03:09:14.790Z,3.63
2019-04-01T03:11:42.215Z,2.90
2019-04-01T03:14:09.664Z,3.43
2019-04-01T03:16:37.080Z,3.00
2019-04-01T03:19:04.486Z,2.90
2019-04-01T03:21:31.890Z,3.77
2019-04-01T03:23:59.317Z,3.07
2019-04-01T03:26:26.715Z,2.97
2019-04-01T03:28:54.120Z,3.23
2019-04-01T03:31:21.526Z,3.00
2019-04-01T03:33:48.939Z,3.23
2019-04-01T03:36:16.359Z,3.13
2019-04-01T03:38:43.756Z,3.03
2019-04-01T03:41:11.176Z,3.43
2019-04-01T03:43:38.580Z,4.10
2019-04-01T03:46:06.014Z,4.10
2019-04-01T03:48:33.450Z,3.30
2019-04-01T03:51:00.837Z,2.80
2019-04-01T03:53:28.239Z,3.10
2019-04-01T03:55:55.643Z,3.13
2019-04-01T03:58:23.075Z,2.73
2019-04-01T04:00:50.470Z,3.00
2019-04-01T04:03:17.896Z,3.10
2019-04-01T04:05:45.314Z,3.07
2019-04-01T04:08:12.739Z,3.23
2019-04-01T04:10:40.132Z,3.20
2019-04-01T04:13:07.562Z,3.47
2019-04-01T04:15:35.034Z,3.90
2019-04-01T04:18:02.385Z,3.17
2019-04-01T04:20:29.842Z,3.10
2019-04-01T04:22:57.249Z,3.83
2019-04-01T04:25:24.662Z,3.50
2019-04-01T04:27:52.071Z,3.53
2019-04-01T04:30:19.492Z,3.13
2019-04-01T04:32:46.910Z,3.40
2019-04-01T04:35:14.331Z,3.53
2019-04-01T04:37:41.719Z,3.60
2019-04-01T04:40:09.146Z,3.40
2019-04-01T04:42:36.555Z,3.37
2019-04-01T04:45:03.982Z,3.33
2019-04-01T04:47:31.383Z,3.40
2019-04-01T04:49:58.820Z,3.00
2019-04-01T04:52:26.213Z,3.40
2019-04-01T04:54:53.638Z,3.50
2019-04-01T04:57:21.045Z,3.30
2019-04-01T04:59:48.459Z,3.80
2019-04-01T05:02:15.896Z,4.17
2019-04-01T05:04:43.340Z,3.67
2019-04-01T05:07:10.736Z,3.50
2019-04-01T05:09:38.129Z,4.00
2019-04-01T05:12:05.552Z,3.70
2019-04-01T05:14:32.958Z,4.23
2019-04-01T05:17:00.499Z,3.97
2019-04-01T05:19:27.920Z,3.43
2019-04-01T05:21:55.393Z,3.20
2019-04-01T05:24:22.784Z,3.60
2019-04-01T05:26:50.178Z,3.90
2019-04-01T05:29:17.648Z,3.40
2019-04-01T05:31:45.049Z,3.53
2019-04-01T05:34:12.482Z,3.70
2019-04-01T05:36:39.919Z,4.80
2019-04-01T05:39:07.356Z,3.33
2019-04-01T05:41:34.824Z,3.87
2019-04-01T05:44:02.555Z,3.70
2019-04-01T05:46:29.654Z,3.80
2019-04-01T05:48:57.084Z,3.93
2019-04-01T05:51:24.483Z,4.20
2019-04-01T05:53:51.914Z,3.97
2019-04-01T05:56:19.314Z,3.87
2019-04-01T05:58:46.717Z,3.60
2019-04-01T06:01:16.860Z,3.60
2019-04-01T06:03:44.275Z,3.83
2019-04-01T06:06:11.701Z,3.50
2019-04-01T06:08:39.151Z,4.43
2019-04-01T06:11:06.561Z,3.57
2019-04-01T06:13:33.958Z,3.87
2019-04-01T06:16:01.385Z,4.10
2019-04-01T06:18:28.770Z,3.70
2019-04-01T06:20:56.207Z,4.17
2019-04-01T06:23:23.613Z,4.20
2019-04-01T06:25:51.043Z,3.30
2019-04-01T06:28:18.440Z,3.80
2019-04-01T06:30:45.858Z,3.83
2019-04-01T06:33:13.325Z,4.23
2019-04-01T06:35:40.744Z,3.80
2019-04-01T06:38:08.164Z,3.93
2019-04-01T06:40:35.599Z,3.87
2019-04-01T06:43:03.012Z,3.53
2019-04-01T06:45:30.405Z,3.27
2019-04-01T06:47:57.827Z,4.10
2019-04-01T06:50:25.249Z,3.50
2019-04-01T06:52:52.673Z,3.30
2019-04-01T06:55:20.072Z,3.80
2019-04-01T06:57:47.504Z,3.73
2019-04-01T07:00:14.908Z,3.93
2019-04-01T07:02:42.346Z,4.23
2019-04-01T07:05:12.362Z,4.60
2019-04-01T07:07:37.154Z,3.70
2019-04-01T07:10:04.584Z,3.50
2019-04-01T07:12:31.994Z,3.90
2019-04-01T07:14:59.433Z,3.87
2019-04-01T07:17:26.849Z,4.37
2019-04-01T07:19:54.286Z,3.93
2019-04-01T07:22:21.690Z,3.83
2019-04-01T07:24:49.101Z,3.30
2019-04-01T07:27:16.523Z,3.60
2019-04-01T07:29:43.922Z,3.97
2019-04-01T07:32:14.418Z,4.03
2019-04-01T07:34:38.743Z,3.90
2019-04-01T07:37:06.157Z,5.13
2019-04-01T07:39:33.562Z,4.53
2019-04-01T07:42:01.002Z,5.07
2019-04-01T07:44:28.391Z,4.07
2019-04-01T07:46:55.799Z,4.00
2019-04-01T07:49:23.221Z,3.73
2019-04-01T07:51:50.623Z,3.93
2019-04-01T07:54:18.649Z,4.53
2019-04-01T07:56:46.517Z,4.13
2019-04-01T07:59:13.943Z,4.30
2019-04-01T08:01:41.352Z,4.30
2019-04-01T08:04:08.778Z,4.67
2019-04-01T08:06:36.175Z,4.60
2019-04-01T08:09:03.604Z,4.23
2019-04-01T08:11:30.995Z,4.77
2019-04-01T08:13:58.389Z,3.90
2019-04-01T08:16:25.809Z,4.80
2019-04-01T08:18:53.205Z,4.70
2019-04-01T08:21:21.014Z,4.73
2019-04-01T08:23:48.451Z,5.00
2019-04-01T08:26:15.882Z,5.80
2019-04-01T08:28:43.285Z,4.60
2019-04-01T08:31:13.294Z,5.20
2019-04-01T08:33:38.132Z,4.80
2019-04-01T08:36:05.542Z,6.10
2019-04-01T08:38:32.968Z,4.03
2019-04-01T08:41:00.464Z,5.50
2019-04-01T08:43:27.833Z,4.80
2019-04-01T08:45:55.295Z,5.70
2019-04-01T08:48:22.690Z,5.37
2019-04-01T08:50:50.124Z,5.37
2019-04-01T08:53:17.531Z,6.00
2019-04-01T08:55:44.978Z,6.23
2019-04-01T08:58:12.405Z,5.30
2019-04-01T09:00:39.796Z,6.43
2019-04-01T09:03:07.236Z,6.00
2019-04-01T09:05:34.657Z,6.03
2019-04-01T09:08:02.065Z,6.67
2019-04-01T09:10:29.495Z,6.37
2019-04-01T09:12:56.907Z,6.43
2019-04-01T09:15:24.294Z,6.40
2019-04-01T09:17:51.717Z,6.73
2019-04-01T09:20:19.109Z,6.67
2019-04-01T09:22:46.550Z,5.97
2019-04-01T09:25:13.952Z,7.53
2019-04-01T09:27:41.377Z,6.13
2019-04-01T09:30:08.790Z,7.17
2019-04-01T09:32:36.213Z,7.20
2019-04-01T09:35:03.621Z,7.23
2019-04-01T09:37:31.039Z,7.93
2019-04-01T09:39:58.439Z,6.57
2019-04-01T09:42:25.838Z,6.97
2019-04-01T09:44:53.273Z,5.93
2019-04-01T09:47:20.690Z,7.53
2019-04-01T09:49:48.086Z,7.90
2019-04-01T09:52:15.511Z,6.77
2019-04-01T09:54:42.916Z,6.43
2019-04-01T09:57:17.458Z,6.80
2019-04-01T09:59:37.805Z,7.07
2019-04-01T10:02:05.193Z,7.23
2019-04-01T10:04:32.626Z,8.00
2019-04-01T10:07:00.034Z,7.50
2019-04-01T10:09:27.469Z,7.93
2019-04-01T10:11:54.878Z,8.40
2019-04-01T10:14:22.292Z,8.40
2019-04-01T10:16:49.729Z,7.70
2019-04-01T10:19:17.139Z,8.97
2019-04-01T10:21:45.378Z,8.47
2019-04-01T10:24:11.963Z,9.37
2019-04-01T10:26:39.372Z,9.47
2019-04-01T10:29:06.796Z,8.60
2019-04-01T10:31:34.203Z,8.90
2019-04-01T10:34:01.621Z,9.53
2019-04-01T10:36:29.033Z,9.20
2019-04-01T10:38:56.422Z,9.23
2019-04-01T10:41:23.840Z,8.93
2019-04-01T10:43:51.265Z,9.50
2019-04-01T10:46:18.715Z,9.67
2019-04-01T10:48:46.167Z,9.50
2019-04-01T10:51:13.544Z,8.90
2019-04-01T10:53:41.009Z,9.60
2019-04-01T10:56:08.401Z,10.20
2019-04-01T10:58:35.799Z,10.27
2019-04-01T11:01:03.277Z,9.43
2019-04-01T11:03:30.642Z,10.03
2019-04-01T11:05:58.039Z,10.60
2019-04-01T11:08:25.467Z,10.53
2019-04-01T11:10:52.877Z,10.47
2019-04-01T11:13:21.796Z,10.67
2019-04-01T11:15:48.754Z,10.70
2019-04-01T11:18:15.113Z,9.97
2019-04-01T11:20:42.548Z,10.60
2019-04-01T11:23:09.957Z,11.40
2019-04-01T11:25:37.380Z,10.60
2019-04-01T11:28:04.809Z,10.43
2019-04-01T11:30:32.266Z,12.17
2019-04-01T11:32:59.654Z,10.90
2019-04-01T11:35:27.089Z,10.53
2019-04-01T11:37:54.503Z,11.17
2019-04-01T11:40:21.963Z,10.60
2019-04-01T11:42:49.342Z,10.07
2019-04-01T11:45:16.785Z,11.37
2019-04-01T11:47:44.229Z,10.90
2019-04-01T11:50:11.609Z,10.00
2019-04-01T11:52:39.046Z,11.00
2019-04-01T11:55:06.835Z,10.03
2019-04-01T11:57:33.839Z,10.70
2019-04-01T12:00:01.279Z,10.83
2019-04-01T12:02:28.690Z,10.97
2019-04-01T12:04:56.112Z,10.20
2019-04-01T12:07:23.505Z,11.33
2019-04-01T12:09:52.415Z,11.27
2019-04-01T12:12:23.800Z,11.20
2019-04-01T12:14:45.772Z,10.87
2019-04-01T12:17:13.201Z,10.87
2019-04-01T12:19:40.642Z,11.80
2019-04-01T12:22:08.057Z,10.93
2019-04-01T12:24:35.493Z,11.33
2019-04-01T12:27:02.886Z,11.57
2019-04-01T12:29:30.346Z,11.90
2019-04-01T12:31:59.626Z,11.20
2019-04-01T12:34:25.192Z,11.40
2019-04-01T12:36:52.600Z,12.27
2019-04-01T12:39:20.046Z,11.57
2019-04-01T12:41:47.588Z,12.73
2019-04-01T12:44:14.890Z,12.00
2019-04-01T12:46:42.299Z,11.77
2019-04-01T12:49:09.742Z,12.30
2019-04-01T12:51:37.187Z,13.53
2019-04-01T12:54:04.586Z,11.70
2019-04-01T12:56:32.018Z,12.57
2019-04-01T12:58:59.428Z,12.50
2019-04-01T13:01:26.865Z,12.67
2019-04-01T13:03:54.269Z,11.93
2019-04-01T13:06:22.327Z,12.90
2019-04-01T13:08:49.111Z,11.93
2019-04-01T13:11:16.511Z,12.10
2019-04-01T13:13:44.747Z,12.73
2019-04-01T13:16:11.355Z,11.63
2019-04-01T13:18:38.778Z,12.87
2019-04-01T13:21:06.175Z,13.43
2019-04-01T13:23:33.601Z,12.87
2019-04-01T13:26:01.080Z,12.47
2019-04-01T13:28:28.447Z,13.73
2019-04-01T13:30:55.867Z,12.07
2019-04-01T13:33:23.277Z,12.33
2019-04-01T13:35:50.714Z,13.63
2019-04-01T13:38:18.118Z,14.55
2019-04-01T13:40:45.561Z,13.03
2019-04-01T13:43:16.563Z,13.90
2019-04-01T13:45:40.372Z,13.90
2019-04-01T13:48:07.802Z,13.20
2019-04-01T13:50:35.264Z,13.57
2019-04-01T13:53:02.686Z,13.27
2019-04-01T13:55:30.106Z,13.03
2019-04-01T13:57:57.537Z,13.53
2019-04-01T14:00:27.400Z,13.60
2019-04-01T14:02:52.407Z,14.70
2019-04-01T14:05:19.811Z,15.03
2019-04-01T14:07:47.233Z,15.10
2019-04-01T14:10:14.637Z,15.67
2019-04-01T14:12:42.043Z,14.50
2019-04-01T14:15:09.470Z,14.20
2019-04-01T14:17:36.872Z,14.20
2019-04-01T14:20:04.327Z,14.87
2019-04-01T14:22:31.729Z,15.90
2019-04-01T14:24:59.145Z,14.30
2019-04-01T14:27:26.596Z,14.50
2019-04-01T14:29:54.025Z,13.17
2019-04-01T14:32:21.444Z,14.20
2019-04-01T14:34:50.543Z,13.60
2019-04-01T14:37:25.210Z,14.33
2019-04-01T14:39:43.715Z,15.13
2019-04-01T14:42:11.131Z,14.87
2019-04-01T14:44:38.555Z,13.97
2019-04-01T14:47:08.944Z,15.27
2019-04-01T14:49:33.410Z,14.37
2019-04-01T14:52:00.816Z,14.60
2019-04-01T14:54:28.232Z,15.40
2019-04-01T14:56:56.258Z,14.83
2019-04-01T14:59:23.088Z,15.60
2019-04-01T15:01:50.496Z,14.00
2019-04-01T15:04:17.933Z,14.73
2019-04-01T15:06:45.546Z,14.93
2019-04-01T15:09:12.769Z,14.53
2019-04-01T15:11:40.185Z,14.57
2019-04-01T15:14:08.522Z,13.47
2019-04-01T15:16:35.073Z,13.73
2019-04-01T15:19:02.480Z,13.73
2019-04-01T15:21:29.901Z,13.73
2019-04-01T15:23:57.931Z,14.03
2019-04-01T15:26:24.787Z,13.60
2019-04-01T15:28:52.324Z,13.47
2019-04-01T15:31:19.726Z,13.00
2019-04-01T15:33:47.287Z,14.03
2019-04-01T15:36:14.852Z,12.63
2019-04-01T15:38:42.302Z,13.43
2019-04-01T15:41:09.747Z,13.30
2019-04-01T15:43:37.180Z,13.77
2019-04-01T15:46:07.543Z,14.00
2019-04-01T15:48:34.997Z,13.47
2019-04-01T15:51:02.404Z,13.63
2019-04-01T15:53:29.811Z,12.97
2019-04-01T15:55:57.237Z,14.17
2019-04-01T15:58:24.658Z,13.73
2019-04-01T16:00:52.116Z,14.03
2019-04-01T16:03:19.554Z,13.10
2019-04-01T16:05:46.962Z,13.20
2019-04-01T16:08:14.380Z,14.00
2019-04-01T16:10:41.814Z,13.37
2019-04-01T16:13:09.260Z,13.07
2019-04-01T16:15:38.279Z,13.07
2019-04-01T16:18:04.069Z,11.70
2019-04-01T16:20:34.093Z,13.17
2019-04-01T16:22:59.668Z,13.43
2019-04-01T16:25:27.097Z,13.50
2019-04-01T16:27:54.527Z,12.73
2019-04-01T16:30:21.922Z,13.83
2019-04-01T16:32:49.345Z,13.70
2019-04-01T16:35:16.761Z,13.77
2019-04-01T16:37:44.191Z,13.03
2019-04-01T16:40:11.966Z,12.37
2019-04-01T16:42:39.380Z,11.70
2019-04-01T16:45:06.814Z,12.80
2019-04-01T16:47:34.243Z,12.87
2019-04-01T16:50:01.648Z,12.63
2019-04-01T16:52:29.538Z,12.53
2019-04-01T16:54:56.476Z,13.57
2019-04-01T16:57:23.905Z,13.87
2019-04-01T16:59:51.307Z,13.67
2019-04-01T17:02:18.768Z,13.53
2019-04-01T17:04:46.387Z,12.87
2019-04-01T17:07:13.614Z,13.63
2019-04-01T17:09:41.064Z,12.97
2019-04-01T17:12:10.496Z,13.50
2019-04-01T17:14:35.921Z,12.60
2019-04-01T17:17:03.381Z,13.07
2019-04-01T17:19:30.781Z,14.17
2019-04-01T17:21:58.211Z,14.57
2019-04-01T17:24:25.651Z,14.43
2019-04-01T17:26:58.613Z,14.10
2019-04-01T17:29:26.233Z,14.27
2019-04-01T17:31:53.530Z,13.50
2019-04-01T17:34:20.929Z,14.80
2019-04-01T17:36:48.344Z,14.87
2019-04-01T17:39:15.747Z,15.10
2019-04-01T17:41:46.233Z,14.57
2019-04-01T17:44:10.625Z,14.47
2019-04-01T17:46:38.023Z,16.50
2019-04-01T17:49:05.484Z,15.50
2019-04-01T17:51:32.918Z,14.93
2019-04-01T17:54:01.169Z,16.00
2019-04-01T17:56:27.769Z,14.97
2019-04-01T17:58:55.196Z,15.50
2019-04-01T18:01:22.604Z,15.60
2019-04-01T18:03:50.038Z,15.90
2019-04-01T18:06:17.476Z,16.90
2019-04-01T18:08:44.918Z,15.83
2019-04-01T18:11:12.311Z,15.67
2019-04-01T18:13:39.744Z,16.23
2019-04-01T18:16:07.198Z,15.70
2019-04-01T18:18:34.622Z,15.53
2019-04-01T18:21:03.239Z,15.90
2019-04-01T18:23:29.495Z,17.23
2019-04-01T18:25:56.905Z,17.07
2019-04-01T18:28:24.345Z,16.50
2019-04-01T18:30:51.771Z,16.23
2019-04-01T18:33:19.986Z,17.97
2019-04-01T18:35:46.626Z,17.33
2019-04-01T18:38:14.063Z,16.17
2019-04-01T18:40:41.464Z,17.53
2019-04-01T18:43:08.894Z,15.93
2019-04-01T18:45:36.297Z,16.77
2019-04-01T18:48:03.723Z,16.30
2019-04-01T18:50:31.122Z,16.63
2019-04-01T18:52:58.546Z,16.73
2019-04-01T18:55:25.939Z,16.73
2019-04-01T18:57:53.397Z,15.07
2019-04-01T19:00:20.829Z,14.93
2019-04-01T19:02:48.291Z,15.60
2019-04-01T19:05:15.711Z,16.43
2019-04-01T19:07:43.129Z,16.03
2019-04-01T19:10:11.423Z,16.17
2019-04-01T19:12:37.978Z,16.20
2019-04-01T19:15:05.387Z,16.87
2019-04-01T19:17:32.816Z,18.07
2019-04-01T19:20:00.223Z,17.57
2019-04-01T19:22:27.674Z,17.50
2019-04-01T19:24:56.141Z,17.30
2019-04-01T19:27:22.580Z,16.50
2019-04-01T19:29:50.013Z,17.13
2019-04-01T19:32:17.419Z,17.33
2019-04-01T19:34:44.864Z,16.43
2019-04-01T19:37:12.247Z,16.90
2019-04-01T19:39:39.685Z,17.03
2019-04-01T19:42:07.140Z,16.13
2019-04-01T19:44:34.542Z,17.53
2019-04-01T19:47:01.956Z,16.17
2019-04-01T19:49:29.388Z,17.57
2019-04-01T19:51:57.257Z,17.70
2019-04-01T19:54:31.241Z,16.47
2019-04-01T19:56:51.660Z,16.73
2019-04-01T19:59:19.074Z,17.77
2019-04-01T20:01:46.516Z,15.87
2019-04-01T20:04:13.917Z,17.43
2019-04-01T20:06:41.324Z,17.27
2019-04-01T20:09:08.743Z,17.77
2019-04-01T20:11:36.166Z,17.90
2019-04-01T20:14:03.583Z,17.20
2019-04-01T20:16:31.002Z,17.17
2019-04-01T20:18:58.445Z,16.97
2019-04-01T20:21:25.857Z,17.10
2019-04-01T20:23:54.920Z,16.87
2019-04-01T20:26:20.772Z,17.27
2019-04-01T20:28:48.196Z,18.83
2019-04-01T20:31:15.594Z,18.10
2019-04-01T20:33:43.379Z,18.60
2019-04-01T20:36:10.809Z,17.13
2019-04-01T20:38:38.249Z,16.97
2019-04-01T20:41:05.690Z,18.13
2019-04-01T20:43:33.088Z,18.50
2019-04-01T20:46:00.513Z,19.17
2019-04-01T20:48:27.936Z,18.23
2019-04-01T20:50:57.152Z,19.00
2019-04-01T20:53:22.774Z,19.70
2019-04-01T20:55:50.814Z,18.73
2019-04-01T20:58:17.742Z,19.23
2019-04-01T21:00:45.190Z,19.33
2019-04-01T21:03:12.673Z,18.57
2019-04-01T21:05:40.069Z,18.87
2019-04-01T21:08:07.501Z,19.83
2019-04-01T21:10:34.941Z,20.13
2019-04-01T21:13:02.464Z,19.97
2019-04-01T21:15:30.264Z,19.07
2019-04-01T21:17:57.332Z,18.30
2019-04-01T21:20:24.781Z,19.10
2019-04-01T21:22:52.195Z,20.33
2019-04-01T21:25:19.638Z,19.03
2019-04-01T21:27:47.041Z,19.43
2019-04-01T21:30:14.439Z,19.00
2019-04-01T21:32:41.896Z,19.57
2019-04-01T21:35:09.702Z,21.73
2019-04-01T21:37:36.736Z,21.43
2019-04-01T21:40:04.187Z,21.30
2019-04-01T21:42:31.619Z,19.93
2019-04-01T21:44:59.063Z,21.73
2019-04-01T21:47:26.469Z,22.37
2019-04-01T21:49:53.900Z,21.07
2019-04-01T21:52:21.369Z,21.63
2019-04-01T21:54:48.817Z,21.47
2019-04-01T21:57:16.231Z,22.47
2019-04-01T21:59:43.707Z,19.67
2019-04-01T22:02:11.245Z,23.97
2019-04-01T22:04:38.683Z,22.30
2019-04-01T22:07:09.188Z,21.33
2019-04-01T22:09:35.876Z,22.70
2019-04-01T22:12:03.294Z,23.63
2019-04-01T22:14:30.730Z,22.73
2019-04-01T22:16:58.186Z,22.53
2019-04-01T22:19:25.596Z,24.17
2019-04-01T22:21:53.022Z,22.43
2019-04-01T22:24:20.428Z,23.17
2019-04-01T22:26:47.856Z,23.03
2019-04-01T22:29:15.264Z,21.67
2019-04-01T22:31:44.014Z,22.10
2019-04-01T22:34:10.095Z,20.93
2019-04-01T22:36:37.545Z,23.17
2019-04-01T22:39:04.952Z,21.33
2019-04-01T22:41:32.400Z,21.40
2019-04-01T22:43:59.808Z,23.10
2019-04-01T22:46:27.229Z,23.60
2019-04-01T22:48:54.646Z,22.23
2019-04-01T22:51:22.072Z,22.10
2019-04-01T22:53:49.484Z,23.43
2019-04-01T22:56:16.888Z,22.63
2019-04-01T22:58:44.320Z,22.33
2019-04-01T23:01:11.716Z,22.10
2019-04-01T23:03:39.241Z,22.27
2019-04-01T23:06:06.708Z,24.23
2019-04-01T23:08:34.022Z,22.67
2019-04-01T23:11:01.419Z,22.73
2019-04-01T23:13:28.873Z,21.83
2019-04-01T23:15:56.287Z,23.20
2019-04-01T23:18:23.701Z,22.20
2019-04-01T23:20:51.136Z,22.10
2019-04-01T23:23:18.556Z,23.57
2019-04-01T23:25:45.988Z,23.53
2019-04-01T23:28:13.391Z,25.17
2019-04-01T23:30:40.830Z,23.37
2019-04-01T23:33:08.267Z,24.83
2019-04-01T23:35:35.682Z,24.23
2019-04-01T23:38:03.139Z,22.27
2019-04-01T23:40:32.222Z,23.50
2019-04-01T23:42:57.981Z,23.90
2019-04-01T23:45:25.377Z,22.20
2019-04-01T23:47:52.812Z,22.87
2019-04-01T23:50:20.251Z,21.87
2019-04-01T23:52:47.663Z,22.70
2019-04-01T23:55:15.095Z,23.17
2019-04-01T23:57:42.540Z,25.20
